sensor_id;sensor_type;location;lat;lon;timestamp;P1;durP1;ratioP1;P2;durP2;ratioP2
38224;SDS011;24025;48.138;11.428;2023-08-01T00:01:29;3.63;;;1.73;;
38224;SDS011;24025;48.138;11.428;2023-08-01T00:06:32;4.50;;;2.10;;
38224;SDS011;24025;48.138;11.428;2023-08-01T00:09:03;3.38;;;1.75;;
38224;SDS011;24025;48.138;11.428;2023-08-01T00:11:35;3.72;;;1.60;;
38224;SDS011;24025;48.138;11.428;2023-08-01T00:14:06;4.07;;;1.70;;
38224;SDS011;24025;48.138;11.428;2023-08-01T00:16:37;3.20;;;1.70;;
38224;SDS011;24025;48.138;11.428;2023-08-01T00:19:09;4.20;;;2.17;;
38224;SDS011;24025;48.138;11.428;2023-08-01T00:21:41;2.95;;;2.08;;
38224;SDS011;24025;48.138;11.428;2023-08-01T00:24:12;3.55;;;2.03;;
38224;SDS011;24025;48.138;11.428;2023-08-01T00:26:43;3.97;;;1.70;;
38224;SDS011;24025;48.138;11.428;2023-08-01T00:29:15;4.28;;;1.73;;
38224;SDS011;24025;48.138;11.428;2023-08-01T00:31:46;3.05;;;1.63;;
38224;SDS011;24025;48.138;11.428;2023-08-01T00:34:18;3.97;;;1.85;;
38224;SDS011;24025;48.138;11.428;2023-08-01T00:36:49;1.95;;;1.25;;
38224;SDS011;24025;48.138;11.428;2023-08-01T00:39:20;4.72;;;1.70;;
38224;SDS011;24025;48.138;11.428;2023-08-01T00:41:52;5.05;;;1.85;;
38224;SDS011;24025;48.138;11.428;2023-08-01T00:44:23;2.55;;;1.73;;
38224;SDS011;24025;48.138;11.428;2023-08-01T00:46:55;4.20;;;1.23;;
38224;SDS011;24025;48.138;11.428;2023-08-01T00:49:26;4.10;;;1.73;;
38224;SDS011;24025;48.138;11.428;2023-08-01T00:51:57;2.70;;;1.80;;
38224;SDS011;24025;48.138;11.428;2023-08-01T00:54:29;2.63;;;1.63;;
38224;SDS011;24025;48.138;11.428;2023-08-01T00:57:06;4.30;;;1.92;;
38224;SDS011;24025;48.138;11.428;2023-08-01T00:59:38;3.03;;;1.92;;
38224;SDS011;24025;48.138;11.428;2023-08-01T01:02:09;6.70;;;1.88;;
38224;SDS011;24025;48.138;11.428;2023-08-01T01:04:43;2.85;;;2.20;;
38224;SDS011;24025;48.138;11.428;2023-08-01T01:07:14;3.25;;;1.55;;
38224;SDS011;24025;48.138;11.428;2023-08-01T01:09:46;2.78;;;1.70;;
38224;SDS011;24025;48.138;11.428;2023-08-01T01:12:18;3.60;;;2.03;;
38224;SDS011;24025;48.138;11.428;2023-08-01T01:14:49;9.10;;;1.83;;
38224;SDS011;24025;48.138;11.428;2023-08-01T01:17:21;4.50;;;1.98;;
38224;SDS011;24025;48.138;11.428;2023-08-01T01:19:52;3.42;;;2.10;;
38224;SDS011;24025;48.138;11.428;2023-08-01T01:22:25;3.90;;;2.03;;
38224;SDS011;24025;48.138;11.428;2023-08-01T01:24:57;4.35;;;1.80;;
38224;SDS011;24025;48.138;11.428;2023-08-01T01:27:29;4.30;;;1.60;;
38224;SDS011;24025;48.138;11.428;2023-08-01T01:30:01;3.10;;;1.63;;
38224;SDS011;24025;48.138;11.428;2023-08-01T01:32:35;2.58;;;1.58;;
38224;SDS011;24025;48.138;11.428;2023-08-01T01:35:06;3.50;;;2.00;;
38224;SDS011;24025;48.138;11.428;2023-08-01T01:37:38;2.25;;;1.60;;
38224;SDS011;24025;48.138;11.428;2023-08-01T01:40:09;5.03;;;3.25;;
38224;SDS011;24025;48.138;11.428;2023-08-01T01:42:41;3.17;;;1.73;;
38224;SDS011;24025;48.138;11.428;2023-08-01T01:45:12;2.30;;;1.65;;
38224;SDS011;24025;48.138;11.428;2023-08-01T01:47:44;3.88;;;2.55;;
38224;SDS011;24025;48.138;11.428;2023-08-01T01:50:15;2.35;;;1.50;;
38224;SDS011;24025;48.138;11.428;2023-08-01T01:52:47;3.03;;;1.70;;
38224;SDS011;24025;48.138;11.428;2023-08-01T01:55:18;3.80;;;2.05;;
38224;SDS011;24025;48.138;11.428;2023-08-01T01:57:49;5.35;;;2.13;;
38224;SDS011;24025;48.138;11.428;2023-08-01T02:00:21;5.10;;;2.50;;
38224;SDS011;24025;48.138;11.428;2023-08-01T02:02:52;2.47;;;1.95;;
38224;SDS011;24025;48.138;11.428;2023-08-01T02:05:24;4.28;;;1.75;;
38224;SDS011;24025;48.138;11.428;2023-08-01T02:07:55;2.65;;;1.50;;
38224;SDS011;24025;48.138;11.428;2023-08-01T02:10:27;3.58;;;1.50;;
38224;SDS011;24025;48.138;11.428;2023-08-01T02:12:58;2.60;;;1.70;;
38224;SDS011;24025;48.138;11.428;2023-08-01T02:15:29;2.78;;;1.73;;
38224;SDS011;24025;48.138;11.428;2023-08-01T02:18:01;3.05;;;1.83;;
38224;SDS011;24025;48.138;11.428;2023-08-01T02:20:32;3.65;;;1.92;;
38224;SDS011;24025;48.138;11.428;2023-08-01T02:23:04;3.65;;;1.80;;
38224;SDS011;24025;48.138;11.428;2023-08-01T02:25:42;2.50;;;1.65;;
38224;SDS011;24025;48.138;11.428;2023-08-01T02:28:13;2.53;;;1.92;;
38224;SDS011;24025;48.138;11.428;2023-08-01T02:30:45;3.22;;;1.63;;
38224;SDS011;24025;48.138;11.428;2023-08-01T02:33:16;4.78;;;2.00;;
38224;SDS011;24025;48.138;11.428;2023-08-01T02:35:47;4.55;;;2.17;;
38224;SDS011;24025;48.138;11.428;2023-08-01T02:38:19;3.67;;;1.92;;
38224;SDS011;24025;48.138;11.428;2023-08-01T02:40:50;3.28;;;1.90;;
38224;SDS011;24025;48.138;11.428;2023-08-01T02:43:22;4.78;;;1.85;;
38224;SDS011;24025;48.138;11.428;2023-08-01T02:45:53;2.30;;;1.67;;
38224;SDS011;24025;48.138;11.428;2023-08-01T02:48:24;3.55;;;1.58;;
38224;SDS011;24025;48.138;11.428;2023-08-01T02:50:56;2.53;;;1.70;;
38224;SDS011;24025;48.138;11.428;2023-08-01T02:53:27;3.00;;;1.80;;
38224;SDS011;24025;48.138;11.428;2023-08-01T02:55:59;3.33;;;1.90;;
38224;SDS011;24025;48.138;11.428;2023-08-01T02:58:30;2.85;;;1.55;;
38224;SDS011;24025;48.138;11.428;2023-08-01T03:01:05;3.22;;;1.85;;
38224;SDS011;24025;48.138;11.428;2023-08-01T03:03:38;2.65;;;1.83;;
38224;SDS011;24025;48.138;11.428;2023-08-01T03:06:10;5.68;;;1.92;;
38224;SDS011;24025;48.138;11.428;2023-08-01T03:08:41;5.75;;;1.67;;
38224;SDS011;24025;48.138;11.428;2023-08-01T03:13:44;3.95;;;1.80;;
38224;SDS011;24025;48.138;11.428;2023-08-01T03:16:16;4.35;;;2.03;;
38224;SDS011;24025;48.138;11.428;2023-08-01T03:18:48;4.25;;;2.17;;
38224;SDS011;24025;48.138;11.428;2023-08-01T03:21:19;2.70;;;2.15;;
38224;SDS011;24025;48.138;11.428;2023-08-01T03:23:50;4.95;;;1.88;;
38224;SDS011;24025;48.138;11.428;2023-08-01T03:26:22;3.15;;;2.10;;
38224;SDS011;24025;48.138;11.428;2023-08-01T03:28:54;3.22;;;2.10;;
38224;SDS011;24025;48.138;11.428;2023-08-01T03:31:25;4.97;;;2.05;;
38224;SDS011;24025;48.138;11.428;2023-08-01T03:33:56;2.72;;;2.05;;
38224;SDS011;24025;48.138;11.428;2023-08-01T03:36:29;4.13;;;2.17;;
38224;SDS011;24025;48.138;11.428;2023-08-01T03:39:01;5.00;;;2.70;;
38224;SDS011;24025;48.138;11.428;2023-08-01T03:44:04;3.93;;;1.83;;
38224;SDS011;24025;48.138;11.428;2023-08-01T03:46:36;2.92;;;2.05;;
38224;SDS011;24025;48.138;11.428;2023-08-01T03:49:07;5.70;;;2.30;;
38224;SDS011;24025;48.138;11.428;2023-08-01T03:54:10;3.15;;;2.28;;
38224;SDS011;24025;48.138;11.428;2023-08-01T03:56:44;2.92;;;1.90;;
38224;SDS011;24025;48.138;11.428;2023-08-01T03:59:17;5.97;;;2.42;;
38224;SDS011;24025;48.138;11.428;2023-08-01T04:01:49;3.65;;;2.47;;
38224;SDS011;24025;48.138;11.428;2023-08-01T04:04:21;3.85;;;2.05;;
38224;SDS011;24025;48.138;11.428;2023-08-01T04:06:54;4.35;;;2.58;;
38224;SDS011;24025;48.138;11.428;2023-08-01T04:09:26;4.85;;;2.50;;
38224;SDS011;24025;48.138;11.428;2023-08-01T04:11:58;8.50;;;2.65;;
38224;SDS011;24025;48.138;11.428;2023-08-01T04:14:32;5.32;;;2.70;;
38224;SDS011;24025;48.138;11.428;2023-08-01T04:17:04;5.63;;;2.40;;
38224;SDS011;24025;48.138;11.428;2023-08-01T04:19:35;4.10;;;2.50;;
38224;SDS011;24025;48.138;11.428;2023-08-01T04:22:07;6.20;;;2.30;;
38224;SDS011;24025;48.138;11.428;2023-08-01T04:24:40;2.75;;;2.35;;
38224;SDS011;24025;48.138;11.428;2023-08-01T04:27:11;7.43;;;2.53;;
38224;SDS011;24025;48.138;11.428;2023-08-01T04:29:43;6.07;;;2.50;;
38224;SDS011;24025;48.138;11.428;2023-08-01T04:32:14;4.97;;;2.55;;
38224;SDS011;24025;48.138;11.428;2023-08-01T04:34:46;7.20;;;2.90;;
38224;SDS011;24025;48.138;11.428;2023-08-01T04:37:17;7.22;;;2.35;;
38224;SDS011;24025;48.138;11.428;2023-08-01T04:39:51;5.88;;;2.75;;
38224;SDS011;24025;48.138;11.428;2023-08-01T04:42:23;5.13;;;3.20;;
38224;SDS011;24025;48.138;11.428;2023-08-01T04:44:54;12.23;;;2.70;;
38224;SDS011;24025;48.138;11.428;2023-08-01T04:47:26;6.35;;;2.90;;
38224;SDS011;24025;48.138;11.428;2023-08-01T04:49:57;5.15;;;2.83;;
38224;SDS011;24025;48.138;11.428;2023-08-01T04:52:29;5.38;;;2.88;;
38224;SDS011;24025;48.138;11.428;2023-08-01T04:55:00;4.97;;;2.85;;
38224;SDS011;24025;48.138;11.428;2023-08-01T04:57:32;6.38;;;2.72;;
38224;SDS011;24025;48.138;11.428;2023-08-01T05:00:05;7.40;;;2.50;;
38224;SDS011;24025;48.138;11.428;2023-08-01T05:05:08;6.60;;;2.45;;
38224;SDS011;24025;48.138;11.428;2023-08-01T05:07:40;7.57;;;2.45;;
38224;SDS011;24025;48.138;11.428;2023-08-01T05:10:12;8.15;;;3.25;;
38224;SDS011;24025;48.138;11.428;2023-08-01T05:12:47;8.80;;;2.92;;
38224;SDS011;24025;48.138;11.428;2023-08-01T05:15:18;6.18;;;3.15;;
38224;SDS011;24025;48.138;11.428;2023-08-01T05:17:53;7.85;;;3.28;;
38224;SDS011;24025;48.138;11.428;2023-08-01T05:23:02;4.50;;;2.80;;
38224;SDS011;24025;48.138;11.428;2023-08-01T05:25:33;5.28;;;2.47;;
38224;SDS011;24025;48.138;11.428;2023-08-01T05:28:05;3.77;;;2.53;;
38224;SDS011;24025;48.138;11.428;2023-08-01T05:30:36;3.75;;;2.60;;
38224;SDS011;24025;48.138;11.428;2023-08-01T05:33:08;4.25;;;2.88;;
38224;SDS011;24025;48.138;11.428;2023-08-01T05:35:40;6.55;;;2.83;;
38224;SDS011;24025;48.138;11.428;2023-08-01T05:38:11;9.38;;;2.90;;
38224;SDS011;24025;48.138;11.428;2023-08-01T05:40:44;5.60;;;2.88;;
38224;SDS011;24025;48.138;11.428;2023-08-01T05:43:15;5.20;;;3.08;;
38224;SDS011;24025;48.138;11.428;2023-08-01T05:45:47;4.80;;;2.88;;
38224;SDS011;24025;48.138;11.428;2023-08-01T05:48:22;4.97;;;2.55;;
38224;SDS011;24025;48.138;11.428;2023-08-01T05:50:54;7.13;;;2.83;;
38224;SDS011;24025;48.138;11.428;2023-08-01T05:53:28;4.78;;;2.88;;
38224;SDS011;24025;48.138;11.428;2023-08-01T05:56:03;4.25;;;2.72;;
38224;SDS011;24025;48.138;11.428;2023-08-01T05:58:36;5.80;;;2.40;;
38224;SDS011;24025;48.138;11.428;2023-08-01T06:01:10;6.60;;;2.53;;
38224;SDS011;24025;48.138;11.428;2023-08-01T06:03:41;3.85;;;2.42;;
38224;SDS011;24025;48.138;11.428;2023-08-01T06:08:45;5.18;;;2.65;;
38224;SDS011;24025;48.138;11.428;2023-08-01T06:11:22;3.85;;;2.03;;
38224;SDS011;24025;48.138;11.428;2023-08-01T06:13:53;5.78;;;2.50;;
38224;SDS011;24025;48.138;11.428;2023-08-01T06:16:25;5.55;;;2.22;;
38224;SDS011;24025;48.138;11.428;2023-08-01T06:19:00;6.53;;;2.50;;
38224;SDS011;24025;48.138;11.428;2023-08-01T06:21:31;3.55;;;2.35;;
38224;SDS011;24025;48.138;11.428;2023-08-01T06:24:03;4.63;;;2.55;;
38224;SDS011;24025;48.138;11.428;2023-08-01T06:26:35;9.75;;;2.53;;
38224;SDS011;24025;48.138;11.428;2023-08-01T06:29:06;3.53;;;2.72;;
38224;SDS011;24025;48.138;11.428;2023-08-01T06:31:38;5.70;;;2.05;;
38224;SDS011;24025;48.138;11.428;2023-08-01T06:34:11;6.53;;;2.13;;
38224;SDS011;24025;48.138;11.428;2023-08-01T06:36:42;4.97;;;2.75;;
38224;SDS011;24025;48.138;11.428;2023-08-01T06:39:15;4.82;;;2.35;;
38224;SDS011;24025;48.138;11.428;2023-08-01T06:41:47;3.13;;;2.17;;
38224;SDS011;24025;48.138;11.428;2023-08-01T06:44:18;6.82;;;2.47;;
38224;SDS011;24025;48.138;11.428;2023-08-01T06:46:50;3.88;;;2.20;;
38224;SDS011;24025;48.138;11.428;2023-08-01T06:49:22;3.42;;;2.08;;
38224;SDS011;24025;48.138;11.428;2023-08-01T06:51:53;6.93;;;2.47;;
38224;SDS011;24025;48.138;11.428;2023-08-01T06:54:24;4.28;;;2.30;;
38224;SDS011;24025;48.138;11.428;2023-08-01T06:56:56;5.43;;;2.45;;
38224;SDS011;24025;48.138;11.428;2023-08-01T06:59:30;3.42;;;2.38;;
38224;SDS011;24025;48.138;11.428;2023-08-01T07:02:01;3.60;;;2.35;;
38224;SDS011;24025;48.138;11.428;2023-08-01T07:04:34;4.30;;;2.15;;
38224;SDS011;24025;48.138;11.428;2023-08-01T07:07:10;3.08;;;1.85;;
38224;SDS011;24025;48.138;11.428;2023-08-01T07:09:44;5.97;;;2.22;;
38224;SDS011;24025;48.138;11.428;2023-08-01T07:12:17;3.88;;;2.22;;
38224;SDS011;24025;48.138;11.428;2023-08-01T07:14:49;3.78;;;2.10;;
38224;SDS011;24025;48.138;11.428;2023-08-01T07:17:21;6.00;;;2.47;;
38224;SDS011;24025;48.138;11.428;2023-08-01T07:19:53;3.78;;;2.20;;
38224;SDS011;24025;48.138;11.428;2023-08-01T07:22:26;3.42;;;2.00;;
38224;SDS011;24025;48.138;11.428;2023-08-01T07:24:57;2.33;;;1.80;;
38224;SDS011;24025;48.138;11.428;2023-08-01T07:27:29;6.95;;;2.53;;
38224;SDS011;24025;48.138;11.428;2023-08-01T07:30:00;3.28;;;1.90;;
38224;SDS011;24025;48.138;11.428;2023-08-01T07:32:32;3.28;;;2.17;;
38224;SDS011;24025;48.138;11.428;2023-08-01T07:35:04;3.17;;;2.10;;
38224;SDS011;24025;48.138;11.428;2023-08-01T07:37:35;3.40;;;1.77;;
38224;SDS011;24025;48.138;11.428;2023-08-01T07:40:09;3.90;;;1.77;;
38224;SDS011;24025;48.138;11.428;2023-08-01T07:42:43;4.05;;;1.90;;
38224;SDS011;24025;48.138;11.428;2023-08-01T07:45:15;3.83;;;1.85;;
38224;SDS011;24025;48.138;11.428;2023-08-01T07:47:46;3.17;;;1.92;;
38224;SDS011;24025;48.138;11.428;2023-08-01T07:50:18;2.95;;;1.75;;
38224;SDS011;24025;48.138;11.428;2023-08-01T07:52:49;6.15;;;2.47;;
38224;SDS011;24025;48.138;11.428;2023-08-01T07:55:21;3.60;;;1.65;;
38224;SDS011;24025;48.138;11.428;2023-08-01T07:57:53;4.72;;;2.25;;
38224;SDS011;24025;48.138;11.428;2023-08-01T08:00:24;5.80;;;2.00;;
38224;SDS011;24025;48.138;11.428;2023-08-01T08:02:56;3.47;;;2.35;;
38224;SDS011;24025;48.138;11.428;2023-08-01T08:05:28;5.47;;;2.75;;
38224;SDS011;24025;48.138;11.428;2023-08-01T08:07:59;2.63;;;1.80;;
38224;SDS011;24025;48.138;11.428;2023-08-01T08:10:31;9.02;;;2.22;;
38224;SDS011;24025;48.138;11.428;2023-08-01T08:13:02;3.22;;;1.90;;
38224;SDS011;24025;48.138;11.428;2023-08-01T08:15:34;4.55;;;2.13;;
38224;SDS011;24025;48.138;11.428;2023-08-01T08:18:07;5.78;;;2.03;;
38224;SDS011;24025;48.138;11.428;2023-08-01T08:20:42;3.20;;;1.70;;
38224;SDS011;24025;48.138;11.428;2023-08-01T08:23:14;3.40;;;2.00;;
38224;SDS011;24025;48.138;11.428;2023-08-01T08:25:45;3.47;;;2.13;;
38224;SDS011;24025;48.138;11.428;2023-08-01T08:28:27;3.03;;;1.77;;
38224;SDS011;24025;48.138;11.428;2023-08-01T08:31:00;10.18;;;2.50;;
38224;SDS011;24025;48.138;11.428;2023-08-01T08:33:33;9.52;;;2.15;;
38224;SDS011;24025;48.138;11.428;2023-08-01T08:36:05;3.03;;;1.83;;
38224;SDS011;24025;48.138;11.428;2023-08-01T08:38:37;6.22;;;2.03;;
38224;SDS011;24025;48.138;11.428;2023-08-01T08:41:14;4.82;;;1.90;;
38224;SDS011;24025;48.138;11.428;2023-08-01T08:43:50;3.28;;;2.35;;
38224;SDS011;24025;48.138;11.428;2023-08-01T08:46:29;3.63;;;2.20;;
38224;SDS011;24025;48.138;11.428;2023-08-01T08:49:01;3.20;;;2.30;;
38224;SDS011;24025;48.138;11.428;2023-08-01T08:51:32;4.22;;;2.35;;
38224;SDS011;24025;48.138;11.428;2023-08-01T08:56:36;4.67;;;2.40;;
38224;SDS011;24025;48.138;11.428;2023-08-01T08:59:10;3.92;;;2.15;;
38224;SDS011;24025;48.138;11.428;2023-08-01T09:01:42;7.78;;;2.38;;
38224;SDS011;24025;48.138;11.428;2023-08-01T09:04:13;2.85;;;2.28;;
38224;SDS011;24025;48.138;11.428;2023-08-01T09:06:45;4.20;;;2.40;;
38224;SDS011;24025;48.138;11.428;2023-08-01T09:09:21;4.75;;;2.25;;
38224;SDS011;24025;48.138;11.428;2023-08-01T09:11:57;3.75;;;2.20;;
38224;SDS011;24025;48.138;11.428;2023-08-01T09:14:31;4.47;;;2.50;;
38224;SDS011;24025;48.138;11.428;2023-08-01T09:17:08;3.63;;;2.00;;
38224;SDS011;24025;48.138;11.428;2023-08-01T09:19:40;5.32;;;2.70;;
38224;SDS011;24025;48.138;11.428;2023-08-01T09:22:12;4.75;;;2.42;;
38224;SDS011;24025;48.138;11.428;2023-08-01T09:24:53;3.78;;;2.10;;
38224;SDS011;24025;48.138;11.428;2023-08-01T09:27:32;2.97;;;2.00;;
38224;SDS011;24025;48.138;11.428;2023-08-01T09:32:39;3.75;;;2.00;;
38224;SDS011;24025;48.138;11.428;2023-08-01T09:35:11;3.50;;;1.70;;
38224;SDS011;24025;48.138;11.428;2023-08-01T09:37:42;5.18;;;2.45;;
38224;SDS011;24025;48.138;11.428;2023-08-01T09:40:14;3.47;;;2.25;;
38224;SDS011;24025;48.138;11.428;2023-08-01T09:42:46;3.63;;;2.08;;
38224;SDS011;24025;48.138;11.428;2023-08-01T09:45:18;3.30;;;2.03;;
38224;SDS011;24025;48.138;11.428;2023-08-01T09:47:49;5.05;;;2.33;;
38224;SDS011;24025;48.138;11.428;2023-08-01T09:50:21;4.15;;;2.50;;
38224;SDS011;24025;48.138;11.428;2023-08-01T09:52:53;6.40;;;2.78;;
38224;SDS011;24025;48.138;11.428;2023-08-01T09:55:26;4.65;;;2.67;;
38224;SDS011;24025;48.138;11.428;2023-08-01T09:57:58;3.40;;;2.47;;
38224;SDS011;24025;48.138;11.428;2023-08-01T10:03:03;10.07;;;2.30;;
38224;SDS011;24025;48.138;11.428;2023-08-01T10:05:36;6.10;;;2.67;;
38224;SDS011;24025;48.138;11.428;2023-08-01T10:08:10;4.65;;;2.33;;
38224;SDS011;24025;48.138;11.428;2023-08-01T10:10:42;3.22;;;2.33;;
38224;SDS011;24025;48.138;11.428;2023-08-01T10:13:14;6.75;;;2.70;;
38224;SDS011;24025;48.138;11.428;2023-08-01T10:15:46;7.40;;;2.70;;
38224;SDS011;24025;48.138;11.428;2023-08-01T10:18:17;4.47;;;2.65;;
38224;SDS011;24025;48.138;11.428;2023-08-01T10:20:49;4.10;;;2.03;;
38224;SDS011;24025;48.138;11.428;2023-08-01T10:25:52;5.85;;;2.40;;
38224;SDS011;24025;48.138;11.428;2023-08-01T10:28:31;11.95;;;2.35;;
38224;SDS011;24025;48.138;11.428;2023-08-01T10:31:09;4.70;;;2.70;;
38224;SDS011;24025;48.138;11.428;2023-08-01T10:33:41;7.47;;;2.60;;
38224;SDS011;24025;48.138;11.428;2023-08-01T10:36:16;4.10;;;2.60;;
38224;SDS011;24025;48.138;11.428;2023-08-01T10:38:55;3.20;;;2.45;;
38224;SDS011;24025;48.138;11.428;2023-08-01T10:41:30;4.90;;;2.80;;
38224;SDS011;24025;48.138;11.428;2023-08-01T10:44:06;3.45;;;2.17;;
38224;SDS011;24025;48.138;11.428;2023-08-01T10:52:21;7.40;;;2.45;;
38224;SDS011;24025;48.138;11.428;2023-08-01T10:57:34;3.97;;;2.45;;
38224;SDS011;24025;48.138;11.428;2023-08-01T11:00:06;4.55;;;2.45;;
38224;SDS011;24025;48.138;11.428;2023-08-01T11:02:49;2.75;;;2.28;;
38224;SDS011;24025;48.138;11.428;2023-08-01T11:05:22;3.72;;;2.30;;
38224;SDS011;24025;48.138;11.428;2023-08-01T11:07:58;3.78;;;1.92;;
38224;SDS011;24025;48.138;11.428;2023-08-01T11:10:31;4.95;;;1.67;;
38224;SDS011;24025;48.138;11.428;2023-08-01T11:13:03;2.45;;;1.40;;
38224;SDS011;24025;48.138;11.428;2023-08-01T11:15:36;3.17;;;1.50;;
38224;SDS011;24025;48.138;11.428;2023-08-01T11:18:08;2.63;;;1.60;;
38224;SDS011;24025;48.138;11.428;2023-08-01T11:20:40;4.70;;;1.45;;
38224;SDS011;24025;48.138;11.428;2023-08-01T11:23:12;2.65;;;1.60;;
38224;SDS011;24025;48.138;11.428;2023-08-01T11:25:44;2.25;;;1.40;;
38224;SDS011;24025;48.138;11.428;2023-08-01T11:28:17;3.28;;;1.55;;
38224;SDS011;24025;48.138;11.428;2023-08-01T11:33:23;4.20;;;1.48;;
38224;SDS011;24025;48.138;11.428;2023-08-01T11:35:55;2.08;;;1.25;;
38224;SDS011;24025;48.138;11.428;2023-08-01T11:38:32;2.20;;;1.27;;
38224;SDS011;24025;48.138;11.428;2023-08-01T11:41:04;4.68;;;1.88;;
38224;SDS011;24025;48.138;11.428;2023-08-01T11:43:42;2.08;;;1.67;;
38224;SDS011;24025;48.138;11.428;2023-08-01T11:46:14;3.80;;;2.00;;
38224;SDS011;24025;48.138;11.428;2023-08-01T11:48:46;2.50;;;1.65;;
38224;SDS011;24025;48.138;11.428;2023-08-01T11:51:40;2.22;;;1.50;;
38224;SDS011;24025;48.138;11.428;2023-08-01T11:54:13;2.72;;;1.70;;
38224;SDS011;24025;48.138;11.428;2023-08-01T11:56:45;3.10;;;1.70;;
38224;SDS011;24025;48.138;11.428;2023-08-01T11:59:16;3.08;;;2.08;;
38224;SDS011;24025;48.138;11.428;2023-08-01T12:01:48;2.63;;;1.80;;
38224;SDS011;24025;48.138;11.428;2023-08-01T12:04:24;4.75;;;1.58;;
38224;SDS011;24025;48.138;11.428;2023-08-01T12:06:57;2.60;;;1.70;;
38224;SDS011;24025;48.138;11.428;2023-08-01T12:09:31;2.38;;;1.92;;
38224;SDS011;24025;48.138;11.428;2023-08-01T12:12:03;6.88;;;1.70;;
38224;SDS011;24025;48.138;11.428;2023-08-01T12:14:40;2.70;;;1.42;;
38224;SDS011;24025;48.138;11.428;2023-08-01T12:17:12;2.60;;;1.63;;
38224;SDS011;24025;48.138;11.428;2023-08-01T12:19:44;1.52;;;1.20;;
38224;SDS011;24025;48.138;11.428;2023-08-01T12:22:17;3.25;;;1.75;;
38224;SDS011;24025;48.138;11.428;2023-08-01T12:24:53;2.33;;;1.40;;
38224;SDS011;24025;48.138;11.428;2023-08-01T12:27:25;1.70;;;1.60;;
38224;SDS011;24025;48.138;11.428;2023-08-01T12:29:57;2.08;;;1.50;;
38224;SDS011;24025;48.138;11.428;2023-08-01T12:32:29;2.70;;;1.75;;
38224;SDS011;24025;48.138;11.428;2023-08-01T12:35:02;2.00;;;1.40;;
38224;SDS011;24025;48.138;11.428;2023-08-01T12:37:34;3.35;;;1.50;;
38224;SDS011;24025;48.138;11.428;2023-08-01T12:40:06;6.82;;;1.48;;
38224;SDS011;24025;48.138;11.428;2023-08-01T12:42:38;3.42;;;1.50;;
38224;SDS011;24025;48.138;11.428;2023-08-01T12:45:09;7.10;;;1.73;;
38224;SDS011;24025;48.138;11.428;2023-08-01T12:47:41;3.33;;;1.67;;
38224;SDS011;24025;48.138;11.428;2023-08-01T12:50:12;2.13;;;1.55;;
38224;SDS011;24025;48.138;11.428;2023-08-01T12:52:44;2.30;;;1.35;;
38224;SDS011;24025;48.138;11.428;2023-08-01T12:55:15;4.03;;;2.00;;
38224;SDS011;24025;48.138;11.428;2023-08-01T12:57:47;3.85;;;1.20;;
38224;SDS011;24025;48.138;11.428;2023-08-01T13:00:18;2.17;;;1.60;;
38224;SDS011;24025;48.138;11.428;2023-08-01T13:02:56;2.80;;;1.55;;
38224;SDS011;24025;48.138;11.428;2023-08-01T13:05:28;2.20;;;1.60;;
38224;SDS011;24025;48.138;11.428;2023-08-01T13:08:00;1.95;;;1.35;;
38224;SDS011;24025;48.138;11.428;2023-08-01T13:10:36;2.95;;;1.50;;
38224;SDS011;24025;48.138;11.428;2023-08-01T13:13:08;2.28;;;1.50;;
38224;SDS011;24025;48.138;11.428;2023-08-01T13:15:41;4.35;;;1.85;;
38224;SDS011;24025;48.138;11.428;2023-08-01T13:18:13;6.28;;;1.70;;
38224;SDS011;24025;48.138;11.428;2023-08-01T13:20:46;2.58;;;1.40;;
38224;SDS011;24025;48.138;11.428;2023-08-01T13:23:17;3.90;;;1.60;;
38224;SDS011;24025;48.138;11.428;2023-08-01T13:25:49;2.35;;;1.38;;
38224;SDS011;24025;48.138;11.428;2023-08-01T13:28:20;4.40;;;1.52;;
38224;SDS011;24025;48.138;11.428;2023-08-01T13:30:52;3.70;;;2.42;;
38224;SDS011;24025;48.138;11.428;2023-08-01T13:33:23;3.00;;;1.60;;
38224;SDS011;24025;48.138;11.428;2023-08-01T13:35:55;2.33;;;1.48;;
38224;SDS011;24025;48.138;11.428;2023-08-01T13:38:29;4.45;;;1.90;;
38224;SDS011;24025;48.138;11.428;2023-08-01T13:41:03;3.65;;;1.80;;
38224;SDS011;24025;48.138;11.428;2023-08-01T13:43:37;6.00;;;1.98;;
38224;SDS011;24025;48.138;11.428;2023-08-01T13:48:53;3.33;;;1.85;;
38224;SDS011;24025;48.138;11.428;2023-08-01T13:51:25;2.53;;;1.52;;
38224;SDS011;24025;48.138;11.428;2023-08-01T13:53:56;2.13;;;1.58;;
38224;SDS011;24025;48.138;11.428;2023-08-01T13:56:32;4.10;;;1.50;;
38224;SDS011;24025;48.138;11.428;2023-08-01T13:59:06;4.00;;;1.90;;
38224;SDS011;24025;48.138;11.428;2023-08-01T14:01:37;4.00;;;2.15;;
38224;SDS011;24025;48.138;11.428;2023-08-01T14:04:09;7.75;;;1.80;;
38224;SDS011;24025;48.138;11.428;2023-08-01T14:06:41;6.05;;;1.77;;
38224;SDS011;24025;48.138;11.428;2023-08-01T14:09:13;3.53;;;1.55;;
38224;SDS011;24025;48.138;11.428;2023-08-01T14:11:45;4.38;;;2.10;;
38224;SDS011;24025;48.138;11.428;2023-08-01T14:14:16;5.32;;;1.88;;
38224;SDS011;24025;48.138;11.428;2023-08-01T14:19:20;4.38;;;1.88;;
38224;SDS011;24025;48.138;11.428;2023-08-01T14:21:51;3.45;;;2.25;;
38224;SDS011;24025;48.138;11.428;2023-08-01T14:24:23;5.10;;;1.63;;
38224;SDS011;24025;48.138;11.428;2023-08-01T14:26:54;7.80;;;2.10;;
38224;SDS011;24025;48.138;11.428;2023-08-01T14:29:40;1.95;;;1.30;;
38224;SDS011;24025;48.138;11.428;2023-08-01T14:32:17;2.47;;;0.88;;
38224;SDS011;24025;48.138;11.428;2023-08-01T14:34:49;1.13;;;0.70;;
38224;SDS011;24025;48.138;11.428;2023-08-01T14:37:20;0.88;;;0.63;;
38224;SDS011;24025;48.138;11.428;2023-08-01T14:39:58;1.42;;;0.57;;
38224;SDS011;24025;48.138;11.428;2023-08-01T14:42:29;2.28;;;0.88;;
38224;SDS011;24025;48.138;11.428;2023-08-01T14:45:03;1.45;;;0.60;;
38224;SDS011;24025;48.138;11.428;2023-08-01T14:47:34;1.42;;;0.55;;
38224;SDS011;24025;48.138;11.428;2023-08-01T14:50:14;1.10;;;0.80;;
38224;SDS011;24025;48.138;11.428;2023-08-01T14:52:53;4.63;;;1.15;;
38224;SDS011;24025;48.138;11.428;2023-08-01T14:55:24;1.10;;;0.70;;
38224;SDS011;24025;48.138;11.428;2023-08-01T14:57:56;1.73;;;0.80;;
38224;SDS011;24025;48.138;11.428;2023-08-01T15:00:27;1.20;;;0.80;;
38224;SDS011;24025;48.138;11.428;2023-08-01T15:02:59;1.50;;;0.80;;
38224;SDS011;24025;48.138;11.428;2023-08-01T15:05:34;2.92;;;1.30;;
38224;SDS011;24025;48.138;11.428;2023-08-01T15:08:05;1.85;;;1.27;;
38224;SDS011;24025;48.138;11.428;2023-08-01T15:10:37;1.20;;;0.90;;
38224;SDS011;24025;48.138;11.428;2023-08-01T15:13:09;4.10;;;1.17;;
38224;SDS011;24025;48.138;11.428;2023-08-01T15:15:41;1.83;;;0.93;;
38224;SDS011;24025;48.138;11.428;2023-08-01T15:18:12;2.05;;;1.13;;
38224;SDS011;24025;48.138;11.428;2023-08-01T15:20:45;1.70;;;0.65;;
38224;SDS011;24025;48.138;11.428;2023-08-01T15:23:17;1.83;;;1.00;;
38224;SDS011;24025;48.138;11.428;2023-08-01T15:25:52;3.67;;;0.80;;
38224;SDS011;24025;48.138;11.428;2023-08-01T15:28:24;5.38;;;1.00;;
38224;SDS011;24025;48.138;11.428;2023-08-01T15:33:28;2.30;;;1.00;;
38224;SDS011;24025;48.138;11.428;2023-08-01T15:36:01;1.17;;;0.70;;
38224;SDS011;24025;48.138;11.428;2023-08-01T15:38:33;1.08;;;0.50;;
38224;SDS011;24025;48.138;11.428;2023-08-01T15:41:05;1.05;;;0.70;;
38224;SDS011;24025;48.138;11.428;2023-08-01T15:43:40;1.38;;;0.73;;
38224;SDS011;24025;48.138;11.428;2023-08-01T15:46:13;1.20;;;0.60;;
38224;SDS011;24025;48.138;11.428;2023-08-01T15:48:48;1.50;;;0.65;;
38224;SDS011;24025;48.138;11.428;2023-08-01T15:51:29;1.02;;;0.30;;